sensor_id;sensor_type;location;lat;lon;timestamp;temperature;humidity
23957;DHT22;12165;45.458;11.062;2022-08-19T00:01:35;21.40;99.90
23957;DHT22;12165;45.458;11.062;2022-08-19T00:04:06;21.50;99.90
23957;DHT22;12165;45.458;11.062;2022-08-19T00:06:34;21.50;99.90
23957;DHT22;12165;45.458;11.062;2022-08-19T00:09:04;21.50;99.90
23957;DHT22;12165;45.458;11.062;2022-08-19T00:11:31;21.40;99.90
23957;DHT22;12165;45.458;11.062;2022-08-19T00:13:58;21.40;99.90
23957;DHT22;12165;45.458;11.062;2022-08-19T00:16:26;21.40;99.90
23957;DHT22;12165;45.458;11.062;2022-08-19T00:18:54;21.40;99.90
23957;DHT22;12165;45.458;11.062;2022-08-19T00:21:25;21.40;99.90
23957;DHT22;12165;45.458;11.062;2022-08-19T00:23:56;21.40;99.90
23957;DHT22;12165;45.458;11.062;2022-08-19T00:26:28;21.30;99.90
23957;DHT22;12165;45.458;11.062;2022-08-19T00:28:55;21.30;99.90
23957;DHT22;12165;45.458;11.062;2022-08-19T00:31:22;21.20;99.90
23957;DHT22;12165;45.458;11.062;2022-08-19T00:33:49;21.30;99.90
23957;DHT22;12165;45.458;11.062;2022-08-19T00:36:17;21.40;99.90
23957;DHT22;12165;45.458;11.062;2022-08-19T00:38:44;21.70;99.90
23957;DHT22;12165;45.458;11.062;2022-08-19T00:41:17;21.90;99.90
23957;DHT22;12165;45.458;11.062;2022-08-19T00:46:28;22.00;99.90
23957;DHT22;12165;45.458;11.062;2022-08-19T00:48:56;21.80;99.90
23957;DHT22;12165;45.458;11.062;2022-08-19T00:51:26;21.60;99.90
23957;DHT22;12165;45.458;11.062;2022-08-19T00:53:55;21.60;99.90
23957;DHT22;12165;45.458;11.062;2022-08-19T00:56:23;21.50;99.90
23957;DHT22;12165;45.458;11.062;2022-08-19T00:58:50;21.40;99.90
23957;DHT22;12165;45.458;11.062;2022-08-19T01:01:17;21.40;99.90
23957;DHT22;12165;45.458;11.062;2022-08-19T01:03:44;21.40;99.90
23957;DHT22;12165;45.458;11.062;2022-08-19T01:06:25;21.50;99.90
23957;DHT22;12165;45.458;11.062;2022-08-19T01:08:54;21.80;99.90
23957;DHT22;12165;45.458;11.062;2022-08-19T01:11:21;21.80;99.90
23957;DHT22;12165;45.458;11.062;2022-08-19T01:13:49;21.60;99.90
23957;DHT22;12165;45.458;11.062;2022-08-19T01:16:18;21.40;99.90
23957;DHT22;12165;45.458;11.062;2022-08-19T01:18:46;21.40;99.90
23957;DHT22;12165;45.458;11.062;2022-08-19T01:21:26;21.30;99.90
23957;DHT22;12165;45.458;11.062;2022-08-19T01:23:55;21.20;99.90
23957;DHT22;12165;45.458;11.062;2022-08-19T01:26:24;21.10;99.90
23957;DHT22;12165;45.458;11.062;2022-08-19T01:28:54;21.20;99.90
23957;DHT22;12165;45.458;11.062;2022-08-19T01:31:28;21.20;99.90
23957;DHT22;12165;45.458;11.062;2022-08-19T01:33:59;21.30;99.90
23957;DHT22;12165;45.458;11.062;2022-08-19T01:36:32;21.30;99.90
23957;DHT22;12165;45.458;11.062;2022-08-19T01:39:01;21.30;99.90
23957;DHT22;12165;45.458;11.062;2022-08-19T01:41:29;21.30;99.90
23957;DHT22;12165;45.458;11.062;2022-08-19T01:43:56;21.20;99.90
23957;DHT22;12165;45.458;11.062;2022-08-19T01:46:43;21.20;99.90
23957;DHT22;12165;45.458;11.062;2022-08-19T01:49:11;21.10;99.90
23957;DHT22;12165;45.458;11.062;2022-08-19T01:51:38;21.10;99.90
23957;DHT22;12165;45.458;11.062;2022-08-19T01:54:08;21.10;99.90
23957;DHT22;12165;45.458;11.062;2022-08-19T01:56:35;21.10;99.90
23957;DHT22;12165;45.458;11.062;2022-08-19T01:59:08;21.10;99.90
23957;DHT22;12165;45.458;11.062;2022-08-19T02:01:36;21.00;99.90
23957;DHT22;12165;45.458;11.062;2022-08-19T02:04:04;21.00;99.90
23957;DHT22;12165;45.458;11.062;2022-08-19T02:06:32;20.90;99.90
23957;DHT22;12165;45.458;11.062;2022-08-19T02:09:00;20.90;99.90
23957;DHT22;12165;45.458;11.062;2022-08-19T02:11:30;20.90;99.90
23957;DHT22;12165;45.458;11.062;2022-08-19T02:13:59;20.80;99.90
23957;DHT22;12165;45.458;11.062;2022-08-19T02:16:26;20.80;99.90
23957;DHT22;12165;45.458;11.062;2022-08-19T02:18:53;20.70;99.90
23957;DHT22;12165;45.458;11.062;2022-08-19T02:21:22;20.60;99.90
23957;DHT22;12165;45.458;11.062;2022-08-19T02:23:50;20.60;99.90
23957;DHT22;12165;45.458;11.062;2022-08-19T02:26:18;20.60;99.90
23957;DHT22;12165;45.458;11.062;2022-08-19T02:28:45;20.60;99.90
23957;DHT22;12165;45.458;11.062;2022-08-19T02:31:16;20.50;99.90
23957;DHT22;12165;45.458;11.062;2022-08-19T02:33:44;20.50;99.90
23957;DHT22;12165;45.458;11.062;2022-08-19T02:36:12;20.40;99.90
23957;DHT22;12165;45.458;11.062;2022-08-19T02:38:42;20.40;99.90
23957;DHT22;12165;45.458;11.062;2022-08-19T02:41:24;20.50;99.90
23957;DHT22;12165;45.458;11.062;2022-08-19T02:43:53;20.80;99.90
23957;DHT22;12165;45.458;11.062;2022-08-19T02:46:40;20.90;99.90
23957;DHT22;12165;45.458;11.062;2022-08-19T02:49:08;20.90;99.90
23957;DHT22;12165;45.458;11.062;2022-08-19T02:51:38;20.90;99.90
23957;DHT22;12165;45.458;11.062;2022-08-19T02:54:07;20.80;99.90
23957;DHT22;12165;45.458;11.062;2022-08-19T02:56:36;20.60;99.90
23957;DHT22;12165;45.458;11.062;2022-08-19T02:59:04;20.50;99.90
23957;DHT22;12165;45.458;11.062;2022-08-19T03:01:38;20.60;99.90
23957;DHT22;12165;45.458;11.062;2022-08-19T03:04:07;20.60;99.90
23957;DHT22;12165;45.458;11.062;2022-08-19T03:06:40;20.50;99.90
23957;DHT22;12165;45.458;11.062;2022-08-19T03:09:07;20.40;99.90
23957;DHT22;12165;45.458;11.062;2022-08-19T03:11:35;20.40;99.90
23957;DHT22;12165;45.458;11.062;2022-08-19T03:14:03;20.70;99.90
23957;DHT22;12165;45.458;11.062;2022-08-19T03:16:47;20.70;99.90
23957;DHT22;12165;45.458;11.062;2022-08-19T03:19:17;20.50;99.90
23957;DHT22;12165;45.458;11.062;2022-08-19T03:21:44;20.40;99.90
23957;DHT22;12165;45.458;11.062;2022-08-19T03:24:12;20.40;99.90
23957;DHT22;12165;45.458;11.062;2022-08-19T03:26:42;20.40;99.90
23957;DHT22;12165;45.458;11.062;2022-08-19T03:29:10;20.30;99.90
23957;DHT22;12165;45.458;11.062;2022-08-19T03:31:40;20.40;99.90
23957;DHT22;12165;45.458;11.062;2022-08-19T03:34:25;20.60;99.90
23957;DHT22;12165;45.458;11.062;2022-08-19T03:36:57;20.70;99.90
23957;DHT22;12165;45.458;11.062;2022-08-19T03:39:25;20.50;99.90
23957;DHT22;12165;45.458;11.062;2022-08-19T03:41:54;20.30;99.90
23957;DHT22;12165;45.458;11.062;2022-08-19T03:44:44;20.20;99.90
23957;DHT22;12165;45.458;11.062;2022-08-19T03:47:11;20.10;99.90
23957;DHT22;12165;45.458;11.062;2022-08-19T03:49:42;20.10;99.90
23957;DHT22;12165;45.458;11.062;2022-08-19T03:52:09;20.10;99.90
23957;DHT22;12165;45.458;11.062;2022-08-19T03:54:37;20.20;99.90
23957;DHT22;12165;45.458;11.062;2022-08-19T03:57:05;20.10;99.90
23957;DHT22;12165;45.458;11.062;2022-08-19T03:59:34;20.10;99.90
23957;DHT22;12165;45.458;11.062;2022-08-19T04:02:05;20.00;99.90
23957;DHT22;12165;45.458;11.062;2022-08-19T04:04:36;20.00;99.90
23957;DHT22;12165;45.458;11.062;2022-08-19T04:07:04;20.00;99.90
23957;DHT22;12165;45.458;11.062;2022-08-19T04:09:32;20.00;99.90
23957;DHT22;12165;45.458;11.062;2022-08-19T04:11:59;19.90;99.90
23957;DHT22;12165;45.458;11.062;2022-08-19T04:14:28;19.90;99.90
23957;DHT22;12165;45.458;11.062;2022-08-19T04:17:00;19.90;99.90
23957;DHT22;12165;45.458;11.062;2022-08-19T04:19:29;19.90;99.90
23957;DHT22;12165;45.458;11.062;2022-08-19T04:21:57;19.90;99.90
23957;DHT22;12165;45.458;11.062;2022-08-19T04:24:25;20.00;99.90
23957;DHT22;12165;45.458;11.062;2022-08-19T04:26:52;20.00;99.90
23957;DHT22;12165;45.458;11.062;2022-08-19T04:29:24;20.00;99.90
23957;DHT22;12165;45.458;11.062;2022-08-19T04:31:55;20.00;99.90
23957;DHT22;12165;45.458;11.062;2022-08-19T04:34:24;20.20;99.90
23957;DHT22;12165;45.458;11.062;2022-08-19T04:36:53;20.20;99.90
23957;DHT22;12165;45.458;11.062;2022-08-19T04:39:31;20.30;99.90
23957;DHT22;12165;45.458;11.062;2022-08-19T04:42:17;20.30;99.90
23957;DHT22;12165;45.458;11.062;2022-08-19T04:45:13;20.40;99.90
23957;DHT22;12165;45.458;11.062;2022-08-19T04:47:43;20.50;99.90
23957;DHT22;12165;45.458;11.062;2022-08-19T04:50:25;20.60;99.90
23957;DHT22;12165;45.458;11.062;2022-08-19T04:52:53;20.70;99.90
23957;DHT22;12165;45.458;11.062;2022-08-19T04:55:22;20.70;99.90
23957;DHT22;12165;45.458;11.062;2022-08-19T04:57:52;20.80;99.90
23957;DHT22;12165;45.458;11.062;2022-08-19T05:00:19;21.00;99.90
23957;DHT22;12165;45.458;11.062;2022-08-19T05:02:46;21.20;99.90
23957;DHT22;12165;45.458;11.062;2022-08-19T05:05:15;21.20;99.90
23957;DHT22;12165;45.458;11.062;2022-08-19T05:07:42;21.70;99.90
23957;DHT22;12165;45.458;11.062;2022-08-19T05:10:10;21.90;99.90
23957;DHT22;12165;45.458;11.062;2022-08-19T05:12:37;21.80;99.90
23957;DHT22;12165;45.458;11.062;2022-08-19T05:15:05;21.70;99.90
23957;DHT22;12165;45.458;11.062;2022-08-19T05:17:33;21.50;99.90
23957;DHT22;12165;45.458;11.062;2022-08-19T05:20:06;21.60;99.90
23957;DHT22;12165;45.458;11.062;2022-08-19T05:22:52;21.50;99.90
23957;DHT22;12165;45.458;11.062;2022-08-19T05:25:21;21.50;99.90
23957;DHT22;12165;45.458;11.062;2022-08-19T05:27:48;21.60;99.90
23957;DHT22;12165;45.458;11.062;2022-08-19T05:30:16;21.70;99.90
23957;DHT22;12165;45.458;11.062;2022-08-19T05:32:44;21.90;99.90
23957;DHT22;12165;45.458;11.062;2022-08-19T05:35:11;22.00;99.90
23957;DHT22;12165;45.458;11.062;2022-08-19T05:37:39;21.90;99.90
23957;DHT22;12165;45.458;11.062;2022-08-19T05:40:08;21.90;99.90
23957;DHT22;12165;45.458;11.062;2022-08-19T05:42:35;21.80;99.90
23957;DHT22;12165;45.458;11.062;2022-08-19T05:45:03;21.90;99.90
23957;DHT22;12165;45.458;11.062;2022-08-19T05:47:31;21.80;99.90
23957;DHT22;12165;45.458;11.062;2022-08-19T05:49:58;21.60;99.90
23957;DHT22;12165;45.458;11.062;2022-08-19T05:52:25;21.70;99.90
23957;DHT22;12165;45.458;11.062;2022-08-19T05:54:53;21.60;99.90
23957;DHT22;12165;45.458;11.062;2022-08-19T05:57:23;21.60;99.90
23957;DHT22;12165;45.458;11.062;2022-08-19T05:59:51;21.80;99.90
23957;DHT22;12165;45.458;11.062;2022-08-19T06:02:25;21.80;99.90
23957;DHT22;12165;45.458;11.062;2022-08-19T06:04:53;21.90;99.90
23957;DHT22;12165;45.458;11.062;2022-08-19T06:07:20;21.90;99.90
23957;DHT22;12165;45.458;11.062;2022-08-19T06:09:47;21.90;99.90
23957;DHT22;12165;45.458;11.062;2022-08-19T06:12:28;21.80;99.90
23957;DHT22;12165;45.458;11.062;2022-08-19T06:14:59;21.70;99.90
23957;DHT22;12165;45.458;11.062;2022-08-19T06:17:31;21.70;99.90
23957;DHT22;12165;45.458;11.062;2022-08-19T06:19:58;21.70;99.90
23957;DHT22;12165;45.458;11.062;2022-08-19T06:22:27;21.60;99.90
23957;DHT22;12165;45.458;11.062;2022-08-19T06:24:55;21.60;99.90
23957;DHT22;12165;45.458;11.062;2022-08-19T06:27:22;21.60;99.90
23957;DHT22;12165;45.458;11.062;2022-08-19T06:29:49;21.70;99.90
23957;DHT22;12165;45.458;11.062;2022-08-19T06:32:17;21.50;99.90
23957;DHT22;12165;45.458;11.062;2022-08-19T06:34:46;21.30;99.90
23957;DHT22;12165;45.458;11.062;2022-08-19T06:37:13;21.10;99.90
23957;DHT22;12165;45.458;11.062;2022-08-19T06:39:43;21.10;99.90
23957;DHT22;12165;45.458;11.062;2022-08-19T06:42:11;21.00;99.90
23957;DHT22;12165;45.458;11.062;2022-08-19T06:44:42;21.00;99.90
23957;DHT22;12165;45.458;11.062;2022-08-19T06:47:19;21.20;99.90
23957;DHT22;12165;45.458;11.062;2022-08-19T06:49:55;21.20;99.90
23957;DHT22;12165;45.458;11.062;2022-08-19T06:52:35;21.10;99.90
23957;DHT22;12165;45.458;11.062;2022-08-19T06:55:05;21.20;99.90
23957;DHT22;12165;45.458;11.062;2022-08-19T06:57:33;21.30;99.90
23957;DHT22;12165;45.458;11.062;2022-08-19T07:00:01;21.10;99.90
23957;DHT22;12165;45.458;11.062;2022-08-19T07:02:28;21.00;99.90
23957;DHT22;12165;45.458;11.062;2022-08-19T07:04:55;21.00;99.90
23957;DHT22;12165;45.458;11.062;2022-08-19T07:07:24;21.00;99.90
23957;DHT22;12165;45.458;11.062;2022-08-19T07:09:52;20.90;99.90
23957;DHT22;12165;45.458;11.062;2022-08-19T07:12:30;20.90;99.90
23957;DHT22;12165;45.458;11.062;2022-08-19T07:15:03;20.90;99.90
23957;DHT22;12165;45.458;11.062;2022-08-19T07:17:31;21.10;99.90
23957;DHT22;12165;45.458;11.062;2022-08-19T07:20:01;21.10;99.90
23957;DHT22;12165;45.458;11.062;2022-08-19T07:22:35;21.10;99.90
23957;DHT22;12165;45.458;11.062;2022-08-19T07:25:03;21.00;99.90
23957;DHT22;12165;45.458;11.062;2022-08-19T07:27:30;20.90;99.90
23957;DHT22;12165;45.458;11.062;2022-08-19T07:29:59;20.90;99.90
23957;DHT22;12165;45.458;11.062;2022-08-19T07:32:26;20.80;99.90
23957;DHT22;12165;45.458;11.062;2022-08-19T07:34:55;20.70;99.90
23957;DHT22;12165;45.458;11.062;2022-08-19T07:37:25;20.60;99.90
23957;DHT22;12165;45.458;11.062;2022-08-19T07:40:00;20.50;99.90
23957;DHT22;12165;45.458;11.062;2022-08-19T07:42:27;20.50;99.90
23957;DHT22;12165;45.458;11.062;2022-08-19T07:44:57;20.60;99.90
23957;DHT22;12165;45.458;11.062;2022-08-19T07:47:25;20.70;99.90
23957;DHT22;12165;45.458;11.062;2022-08-19T07:50:12;20.60;99.90
23957;DHT22;12165;45.458;11.062;2022-08-19T07:52:40;20.70;99.90
23957;DHT22;12165;45.458;11.062;2022-08-19T07:55:09;20.60;99.90
23957;DHT22;12165;45.458;11.062;2022-08-19T07:57:56;20.70;99.90
23957;DHT22;12165;45.458;11.062;2022-08-19T08:00:23;20.90;99.90
23957;DHT22;12165;45.458;11.062;2022-08-19T08:02:52;21.00;99.90
23957;DHT22;12165;45.458;11.062;2022-08-19T08:05:22;21.20;99.90
23957;DHT22;12165;45.458;11.062;2022-08-19T08:08:18;21.20;99.90
23957;DHT22;12165;45.458;11.062;2022-08-19T08:11:14;21.00;99.90
23957;DHT22;12165;45.458;11.062;2022-08-19T08:13:43;20.80;99.90
23957;DHT22;12165;45.458;11.062;2022-08-19T08:16:10;20.90;99.90
23957;DHT22;12165;45.458;11.062;2022-08-19T08:18:40;20.90;99.90
23957;DHT22;12165;45.458;11.062;2022-08-19T08:21:16;20.60;99.90
23957;DHT22;12165;45.458;11.062;2022-08-19T08:23:42;20.40;99.90
23957;DHT22;12165;45.458;11.062;2022-08-19T08:26:10;20.50;99.90
23957;DHT22;12165;45.458;11.062;2022-08-19T08:28:38;20.60;99.90
23957;DHT22;12165;45.458;11.062;2022-08-19T08:31:06;20.60;99.90
23957;DHT22;12165;45.458;11.062;2022-08-19T08:33:35;20.70;99.90
23957;DHT22;12165;45.458;11.062;2022-08-19T08:36:06;20.70;99.90
23957;DHT22;12165;45.458;11.062;2022-08-19T08:38:33;20.60;99.90
23957;DHT22;12165;45.458;11.062;2022-08-19T08:43:55;20.50;99.90
23957;DHT22;12165;45.458;11.062;2022-08-19T08:46:44;20.60;99.90
23957;DHT22;12165;45.458;11.062;2022-08-19T08:51:52;20.60;99.90
23957;DHT22;12165;45.458;11.062;2022-08-19T08:54:49;20.50;99.90
23957;DHT22;12165;45.458;11.062;2022-08-19T09:00:34;20.50;99.90
23957;DHT22;12165;45.458;11.062;2022-08-19T09:03:02;20.50;99.90
23957;DHT22;12165;45.458;11.062;2022-08-19T09:08:40;20.60;99.90
23957;DHT22;12165;45.458;11.062;2022-08-19T09:12:03;20.70;99.90
23957;DHT22;12165;45.458;11.062;2022-08-19T09:15:12;20.60;99.90
23957;DHT22;12165;45.458;11.062;2022-08-19T09:17:26;20.80;99.90
23957;DHT22;12165;45.458;11.062;2022-08-19T09:22:36;20.70;99.90
23957;DHT22;12165;45.458;11.062;2022-08-19T09:25:06;20.70;99.90
23957;DHT22;12165;45.458;11.062;2022-08-19T09:27:35;20.70;99.90
23957;DHT22;12165;45.458;11.062;2022-08-19T09:30:22;20.80;99.90
23957;DHT22;12165;45.458;11.062;2022-08-19T09:32:50;20.70;99.90
23957;DHT22;12165;45.458;11.062;2022-08-19T09:35:22;20.70;99.90
23957;DHT22;12165;45.458;11.062;2022-08-19T09:37:50;20.80;99.90
23957;DHT22;12165;45.458;11.062;2022-08-19T09:40:24;20.80;99.90
23957;DHT22;12165;45.458;11.062;2022-08-19T09:42:52;20.90;99.90
23957;DHT22;12165;45.458;11.062;2022-08-19T09:45:21;21.00;99.90
23957;DHT22;12165;45.458;11.062;2022-08-19T09:47:50;21.00;99.90
23957;DHT22;12165;45.458;11.062;2022-08-19T09:50:22;21.00;99.90
23957;DHT22;12165;45.458;11.062;2022-08-19T09:52:49;21.00;99.90
23957;DHT22;12165;45.458;11.062;2022-08-19T09:55:24;21.20;99.90
23957;DHT22;12165;45.458;11.062;2022-08-19T09:58:00;21.30;99.90
23957;DHT22;12165;45.458;11.062;2022-08-19T10:00:28;21.30;99.90
23957;DHT22;12165;45.458;11.062;2022-08-19T10:02:55;21.40;99.90
23957;DHT22;12165;45.458;11.062;2022-08-19T10:05:22;21.40;99.90
23957;DHT22;12165;45.458;11.062;2022-08-19T10:08:09;21.50;99.90
23957;DHT22;12165;45.458;11.062;2022-08-19T10:10:42;21.50;99.90
23957;DHT22;12165;45.458;11.062;2022-08-19T10:13:15;21.50;99.90
23957;DHT22;12165;45.458;11.062;2022-08-19T10:15:43;21.60;99.90
23957;DHT22;12165;45.458;11.062;2022-08-19T10:18:14;21.80;99.90
23957;DHT22;12165;45.458;11.062;2022-08-19T10:20:41;21.90;99.90
23957;DHT22;12165;45.458;11.062;2022-08-19T10:23:09;22.20;99.90
23957;DHT22;12165;45.458;11.062;2022-08-19T10:25:36;22.10;99.90
23957;DHT22;12165;45.458;11.062;2022-08-19T10:28:04;22.00;99.90
23957;DHT22;12165;45.458;11.062;2022-08-19T10:30:37;22.20;99.90
23957;DHT22;12165;45.458;11.062;2022-08-19T10:33:05;22.40;99.90
23957;DHT22;12165;45.458;11.062;2022-08-19T10:35:37;22.50;99.90
23957;DHT22;12165;45.458;11.062;2022-08-19T10:38:22;22.50;99.90
23957;DHT22;12165;45.458;11.062;2022-08-19T10:40:58;22.60;99.90
23957;DHT22;12165;45.458;11.062;2022-08-19T10:43:33;22.50;99.90
23957;DHT22;12165;45.458;11.062;2022-08-19T10:46:04;22.50;99.90
23957;DHT22;12165;45.458;11.062;2022-08-19T10:48:41;22.70;99.90
23957;DHT22;12165;45.458;11.062;2022-08-19T10:51:09;22.90;99.90
23957;DHT22;12165;45.458;11.062;2022-08-19T10:53:56;23.20;99.90
23957;DHT22;12165;45.458;11.062;2022-08-19T10:56:23;23.50;99.90
23957;DHT22;12165;45.458;11.062;2022-08-19T10:59:09;23.70;99.90
23957;DHT22;12165;45.458;11.062;2022-08-19T11:01:36;24.00;99.90
23957;DHT22;12165;45.458;11.062;2022-08-19T11:04:04;24.30;99.90
23957;DHT22;12165;45.458;11.062;2022-08-19T11:06:32;24.40;99.90
23957;DHT22;12165;45.458;11.062;2022-08-19T11:08:59;24.90;99.90
23957;DHT22;12165;45.458;11.062;2022-08-19T11:11:26;25.70;99.90
23957;DHT22;12165;45.458;11.062;2022-08-19T11:13:56;26.10;99.90
23957;DHT22;12165;45.458;11.062;2022-08-19T11:16:25;26.20;99.90
23957;DHT22;12165;45.458;11.062;2022-08-19T11:18:58;26.20;99.90
23957;DHT22;12165;45.458;11.062;2022-08-19T11:21:31;26.00;99.90
23957;DHT22;12165;45.458;11.062;2022-08-19T11:24:01;26.50;99.90
23957;DHT22;12165;45.458;11.062;2022-08-19T11:26:30;26.60;99.90
23957;DHT22;12165;45.458;11.062;2022-08-19T11:28:58;26.50;99.90
23957;DHT22;12165;45.458;11.062;2022-08-19T11:31:29;25.90;99.90
23957;DHT22;12165;45.458;11.062;2022-08-19T11:33:59;25.60;99.90
23957;DHT22;12165;45.458;11.062;2022-08-19T11:36:26;25.90;99.90
23957;DHT22;12165;45.458;11.062;2022-08-19T11:38:54;25.90;99.90
23957;DHT22;12165;45.458;11.062;2022-08-19T11:41:23;26.00;99.90
23957;DHT22;12165;45.458;11.062;2022-08-19T11:43:51;26.20;99.90
23957;DHT22;12165;45.458;11.062;2022-08-19T11:46:22;26.10;99.90
23957;DHT22;12165;45.458;11.062;2022-08-19T11:48:49;26.00;99.90
23957;DHT22;12165;45.458;11.062;2022-08-19T11:51:20;26.00;99.90
23957;DHT22;12165;45.458;11.062;2022-08-19T11:53:48;26.10;99.90
23957;DHT22;12165;45.458;11.062;2022-08-19T11:56:18;26.10;99.90
23957;DHT22;12165;45.458;11.062;2022-08-19T11:58:46;25.90;99.90
23957;DHT22;12165;45.458;11.062;2022-08-19T12:01:15;26.10;99.90
23957;DHT22;12165;45.458;11.062;2022-08-19T12:03:45;25.70;99.90
23957;DHT22;12165;45.458;11.062;2022-08-19T12:06:24;25.70;99.90
23957;DHT22;12165;45.458;11.062;2022-08-19T12:08:56;25.80;99.90
23957;DHT22;12165;45.458;11.062;2022-08-19T12:11:23;25.80;99.90
23957;DHT22;12165;45.458;11.062;2022-08-19T12:13:50;26.10;99.90
23957;DHT22;12165;45.458;11.062;2022-08-19T12:16:20;26.10;99.90
23957;DHT22;12165;45.458;11.062;2022-08-19T12:18:48;26.40;99.90
23957;DHT22;12165;45.458;11.062;2022-08-19T12:21:18;26.60;99.90
23957;DHT22;12165;45.458;11.062;2022-08-19T12:23:49;26.40;99.90
23957;DHT22;12165;45.458;11.062;2022-08-19T12:26:22;26.30;99.90
23957;DHT22;12165;45.458;11.062;2022-08-19T12:28:49;26.30;99.90
23957;DHT22;12165;45.458;11.062;2022-08-19T12:31:17;26.50;99.90
23957;DHT22;12165;45.458;11.062;2022-08-19T12:33:44;26.70;99.90
23957;DHT22;12165;45.458;11.062;2022-08-19T12:36:13;26.50;99.90
23957;DHT22;12165;45.458;11.062;2022-08-19T12:38:41;26.60;99.90
23957;DHT22;12165;45.458;11.062;2022-08-19T12:41:11;26.30;99.90
23957;DHT22;12165;45.458;11.062;2022-08-19T12:43:39;26.20;99.90
23957;DHT22;12165;45.458;11.062;2022-08-19T12:46:06;26.40;99.90
23957;DHT22;12165;45.458;11.062;2022-08-19T12:48:36;26.30;99.90
23957;DHT22;12165;45.458;11.062;2022-08-19T12:51:08;26.20;99.90
23957;DHT22;12165;45.458;11.062;2022-08-19T12:53:36;26.00;99.90
23957;DHT22;12165;45.458;11.062;2022-08-19T12:56:06;25.90;99.90
23957;DHT22;12165;45.458;11.062;2022-08-19T12:58:38;25.90;99.90
23957;DHT22;12165;45.458;11.062;2022-08-19T13:01:13;25.90;99.90
23957;DHT22;12165;45.458;11.062;2022-08-19T13:03:45;26.10;99.90
23957;DHT22;12165;45.458;11.062;2022-08-19T13:06:12;25.90;99.90
23957;DHT22;12165;45.458;11.062;2022-08-19T13:08:44;26.00;99.90
23957;DHT22;12165;45.458;11.062;2022-08-19T13:11:14;25.70;99.90
23957;DHT22;12165;45.458;11.062;2022-08-19T13:13:43;25.70;99.90
23957;DHT22;12165;45.458;11.062;2022-08-19T13:16:11;25.70;99.90
23957;DHT22;12165;45.458;11.062;2022-08-19T13:18:39;25.70;99.90
23957;DHT22;12165;45.458;11.062;2022-08-19T13:21:09;25.90;99.90
23957;DHT22;12165;45.458;11.062;2022-08-19T13:23:40;26.10;99.90
23957;DHT22;12165;45.458;11.062;2022-08-19T13:26:09;26.30;99.90
23957;DHT22;12165;45.458;11.062;2022-08-19T13:28:37;26.90;99.90
23957;DHT22;12165;45.458;11.062;2022-08-19T13:31:24;26.90;99.90
23957;DHT22;12165;45.458;11.062;2022-08-19T13:34:10;27.00;99.90
23957;DHT22;12165;45.458;11.062;2022-08-19T13:36:38;27.40;99.90
23957;DHT22;12165;45.458;11.062;2022-08-19T13:39:06;27.60;99.90
23957;DHT22;12165;45.458;11.062;2022-08-19T13:41:35;27.60;99.90
23957;DHT22;12165;45.458;11.062;2022-08-19T13:44:03;27.70;99.90
23957;DHT22;12165;45.458;11.062;2022-08-19T13:46:31;27.70;99.90
23957;DHT22;12165;45.458;11.062;2022-08-19T13:48:58;27.50;99.90
23957;DHT22;12165;45.458;11.062;2022-08-19T13:51:25;27.40;99.90
23957;DHT22;12165;45.458;11.062;2022-08-19T13:53:51;27.20;99.90
23957;DHT22;12165;45.458;11.062;2022-08-19T13:56:19;27.20;99.90
23957;DHT22;12165;45.458;11.062;2022-08-19T13:58:51;27.20;99.90
23957;DHT22;12165;45.458;11.062;2022-08-19T14:01:23;27.10;99.90
23957;DHT22;12165;45.458;11.062;2022-08-19T14:03:51;27.00;99.90
23957;DHT22;12165;45.458;11.062;2022-08-19T14:06:18;26.90;99.90
23957;DHT22;12165;45.458;11.062;2022-08-19T14:08:46;26.90;99.90
23957;DHT22;12165;45.458;11.062;2022-08-19T14:11:13;27.00;99.90
23957;DHT22;12165;45.458;11.062;2022-08-19T14:13:41;26.90;99.90
23957;DHT22;12165;45.458;11.062;2022-08-19T14:16:13;26.90;99.90
23957;DHT22;12165;45.458;11.062;2022-08-19T14:18:41;26.60;99.90
23957;DHT22;12165;45.458;11.062;2022-08-19T14:21:14;26.50;99.90
23957;DHT22;12165;45.458;11.062;2022-08-19T14:23:42;26.50;99.90
23957;DHT22;12165;45.458;11.062;2022-08-19T14:26:12;26.70;99.90
23957;DHT22;12165;45.458;11.062;2022-08-19T14:28:41;26.50;99.90
23957;DHT22;12165;45.458;11.062;2022-08-19T14:31:10;26.40;99.90
23957;DHT22;12165;45.458;11.062;2022-08-19T14:33:38;26.30;99.90
23957;DHT22;12165;45.458;11.062;2022-08-19T14:36:05;26.20;99.90
23957;DHT22;12165;45.458;11.062;2022-08-19T14:38:32;26.30;99.90
23957;DHT22;12165;45.458;11.062;2022-08-19T14:43:40;26.80;99.90
23957;DHT22;12165;45.458;11.062;2022-08-19T14:46:08;27.10;99.90
23957;DHT22;12165;45.458;11.062;2022-08-19T14:48:37;27.40;99.90
23957;DHT22;12165;45.458;11.062;2022-08-19T14:51:08;27.40;99.90
23957;DHT22;12165;45.458;11.062;2022-08-19T14:53:35;27.30;99.90
23957;DHT22;12165;45.458;11.062;2022-08-19T14:56:12;27.20;99.90
23957;DHT22;12165;45.458;11.062;2022-08-19T14:58:41;27.00;99.90
23957;DHT22;12165;45.458;11.062;2022-08-19T15:01:09;27.00;99.90
23957;DHT22;12165;45.458;11.062;2022-08-19T15:03:37;26.90;99.90
23957;DHT22;12165;45.458;11.062;2022-08-19T15:06:05;26.90;99.90
23957;DHT22;12165;45.458;11.062;2022-08-19T15:08:34;26.90;99.90
23957;DHT22;12165;45.458;11.062;2022-08-19T15:11:08;27.00;99.90
23957;DHT22;12165;45.458;11.062;2022-08-19T15:13:36;27.00;99.90
23957;DHT22;12165;45.458;11.062;2022-08-19T15:16:03;27.00;99.90
23957;DHT22;12165;45.458;11.062;2022-08-19T15:18:31;26.90;99.90
23957;DHT22;12165;45.458;11.062;2022-08-19T15:20:59;26.70;99.90
23957;DHT22;12165;45.458;11.062;2022-08-19T15:23:26;26.50;99.90
23957;DHT22;12165;45.458;11.062;2022-08-19T15:25:53;26.40;99.90
23957;DHT22;12165;45.458;11.062;2022-08-19T15:28:23;26.30;99.90
23957;DHT22;12165;45.458;11.062;2022-08-19T15:30:51;26.20;99.90
23957;DHT22;12165;45.458;11.062;2022-08-19T15:33:19;26.10;99.90
23957;DHT22;12165;45.458;11.062;2022-08-19T15:35:47;26.00;99.90
23957;DHT22;12165;45.458;11.062;2022-08-19T15:38:18;25.90;99.90
23957;DHT22;12165;45.458;11.062;2022-08-19T15:40:48;25.80;99.90
23957;DHT22;12165;45.458;11.062;2022-08-19T15:43:17;25.90;99.90
23957;DHT22;12165;45.458;11.062;2022-08-19T15:45:44;25.80;99.90
23957;DHT22;12165;45.458;11.062;2022-08-19T15:48:15;25.70;99.90
23957;DHT22;12165;45.458;11.062;2022-08-19T15:50:42;25.70;99.90
23957;DHT22;12165;45.458;11.062;2022-08-19T15:53:10;25.60;99.90
23957;DHT22;12165;45.458;11.062;2022-08-19T15:55:42;25.70;99.90